createdAt,value
2023-01-11T00:00:09.478Z,31.69
2023-01-11T00:02:48.207Z,31.24
2023-01-11T00:05:19.842Z,31.78
2023-01-11T00:07:55.801Z,31.29
2023-01-11T00:10:33.333Z,31.51
2023-01-11T00:13:04.086Z,32.01
2023-01-11T00:15:36.594Z,31.74
2023-01-11T00:18:09.360Z,31.82
2023-01-11T00:20:42.492Z,31.84
2023-01-11T00:23:15.776Z,31.52
2023-01-11T00:25:49.916Z,31.61
2023-01-11T00:28:19.985Z,31.65
2023-01-11T00:30:54.024Z,31.86
2023-01-11T00:33:27.916Z,31.80
2023-01-11T00:35:57.925Z,31.89
2023-01-11T00:38:44.123Z,31.72
2023-01-11T00:41:35.636Z,31.76
2023-01-11T00:44:24.912Z,31.48
2023-01-11T00:47:10.844Z,31.46
2023-01-11T00:49:41.130Z,31.41
2023-01-11T00:52:12.303Z,31.27
2023-01-11T00:54:45.329Z,31.46
2023-01-11T00:57:15.964Z,31.67
2023-01-11T00:59:49.478Z,31.47
2023-01-11T01:02:21.351Z,31.28
2023-01-11T01:04:51.991Z,31.26
2023-01-11T01:07:24.549Z,31.63
2023-01-11T01:09:57.172Z,31.67
2023-01-11T01:12:43.351Z,31.60
2023-01-11T01:15:11.512Z,31.50
2023-01-11T01:17:41.568Z,31.71
2023-01-11T01:20:14.808Z,31.96
2023-01-11T01:22:47.559Z,31.50
2023-01-11T01:25:20.683Z,31.43
2023-01-11T01:27:55.682Z,31.22
2023-01-11T01:30:28.398Z,31.40
2023-01-11T01:33:00.530Z,31.41
2023-01-11T01:35:33.654Z,31.32
2023-01-11T01:38:04.106Z,31.23
2023-01-11T01:40:37.064Z,31.47
2023-01-11T01:43:12.133Z,31.20
2023-01-11T01:45:41.497Z,31.39
2023-01-11T01:48:12.979Z,31.31
2023-01-11T01:50:57.680Z,31.21
2023-01-11T01:53:35.829Z,30.97
2023-01-11T01:56:07.610Z,31.49
2023-01-11T01:58:43.970Z,31.20
2023-01-11T02:01:37.433Z,31.44
2023-01-11T02:04:15.558Z,31.45
2023-01-11T02:06:48.844Z,31.30
2023-01-11T02:09:29.783Z,31.17
2023-01-11T02:12:00.788Z,30.95
2023-01-11T02:14:35.764Z,30.94
2023-01-11T02:17:10.980Z,30.97
2023-01-11T02:20:09.174Z,30.72
2023-01-11T02:23:23.965Z,30.58
2023-01-11T02:26:33.718Z,30.21
2023-01-11T02:29:16.072Z,30.12
2023-01-11T02:32:05.655Z,29.64
2023-01-11T02:34:50.218Z,29.67
2023-01-11T02:37:28.182Z,29.45
2023-01-11T02:40:02.027Z,29.63
2023-01-11T02:43:03.581Z,29.31
2023-01-11T02:45:37.565Z,29.31
2023-01-11T02:48:14.256Z,28.99
2023-01-11T02:50:56.665Z,29.08
2023-01-11T02:53:39.709Z,28.97
2023-01-11T02:56:12.318Z,29.28
2023-01-11T02:58:44.839Z,29.07
2023-01-11T03:01:18.566Z,29.10
2023-01-11T03:03:53.971Z,28.96
2023-01-11T03:06:28.758Z,28.87
2023-01-11T03:09:19.030Z,28.99
2023-01-11T03:12:32.112Z,28.99
2023-01-11T03:15:50.373Z,29.21
2023-01-11T03:18:27.221Z,29.06
2023-01-11T03:21:16.213Z,29.43
2023-01-11T03:24:01.582Z,29.16
2023-01-11T03:26:44.248Z,29.21
2023-01-11T03:29:33.911Z,29.11
2023-01-11T03:32:26.620Z,29.14
2023-01-11T03:35:44.723Z,29.36
2023-01-11T03:38:27.027Z,29.32
2023-01-11T03:41:18.397Z,29.51
2023-01-11T03:43:52.767Z,29.68
2023-01-11T03:46:39.126Z,29.95
2023-01-11T03:49:18.624Z,30.02
2023-01-11T03:51:51.202Z,30.02
2023-01-11T03:54:24.927Z,30.08
2023-01-11T03:57:16.246Z,30.54
2023-01-11T03:59:49.457Z,30.42
2023-01-11T04:02:25.776Z,30.28
2023-01-11T04:04:59.261Z,30.37
2023-01-11T04:07:35.520Z,30.52
2023-01-11T04:10:08.482Z,30.45
2023-01-11T04:12:38.983Z,30.53
2023-01-11T04:15:13.481Z,30.68
2023-01-11T04:17:44.256Z,30.69
2023-01-11T04:20:15.347Z,30.51
2023-01-11T04:22:51.239Z,30.60
2023-01-11T04:25:21.827Z,30.70
2023-01-11T04:27:54.638Z,30.82
2023-01-11T04:30:27.672Z,30.89
2023-01-11T04:33:00.795Z,30.49
2023-01-11T04:35:29.181Z,30.37
2023-01-11T04:38:01.841Z,30.53
2023-01-11T04:40:32.179Z,30.34
2023-01-11T04:43:05.547Z,30.66
2023-01-11T04:45:35.712Z,30.60
2023-01-11T04:48:06.405Z,30.63
2023-01-11T04:50:42.334Z,30.50
2023-01-11T04:53:15.321Z,30.21
2023-01-11T04:55:47.570Z,30.40
2023-01-11T04:58:20.166Z,30.30
2023-01-11T05:00:53.654Z,30.11
2023-01-11T05:03:22.275Z,30.42
2023-01-11T05:05:57.721Z,30.55
2023-01-11T05:08:29.226Z,30.57
2023-01-11T05:11:00.060Z,30.43
2023-01-11T05:13:45.173Z,30.52
2023-01-11T05:16:23.755Z,30.25
2023-01-11T05:19:01.482Z,30.72
2023-01-11T05:21:36.248Z,30.71
2023-01-11T05:24:08.425Z,30.43
2023-01-11T05:26:43.242Z,30.48
2023-01-11T05:29:16.162Z,30.78
2023-01-11T05:31:46.068Z,30.35
2023-01-11T05:34:20.210Z,30.72
2023-01-11T05:36:50.245Z,30.62
2023-01-11T05:39:20.112Z,30.39
2023-01-11T05:41:52.492Z,30.49
2023-01-11T05:44:38.955Z,30.37
2023-01-11T05:47:12.547Z,30.54
2023-01-11T05:49:43.212Z,30.58
2023-01-11T05:52:14.278Z,30.57
2023-01-11T05:54:41.894Z,30.47
2023-01-11T05:57:11.887Z,30.48
2023-01-11T05:59:47.640Z,30.22
2023-01-11T06:02:25.177Z,30.24
2023-01-11T06:04:58.378Z,30.21
2023-01-11T06:07:28.319Z,30.23
2023-01-11T06:09:56.517Z,30.33
2023-01-11T06:12:26.724Z,30.38
2023-01-11T06:15:03.603Z,30.35
2023-01-11T06:17:33.756Z,30.46
2023-01-11T06:20:07.197Z,30.31
2023-01-11T06:22:37.404Z,30.40
2023-01-11T06:25:05.479Z,30.60
2023-01-11T06:27:33.000Z,30.22
2023-01-11T06:30:13.707Z,30.44
2023-01-11T06:32:46.396Z,30.63
2023-01-11T06:35:30.948Z,30.53
2023-01-11T06:38:06.495Z,30.58
2023-01-11T06:40:36.904Z,30.26
2023-01-11T06:43:16.482Z,30.38
2023-01-11T06:45:46.724Z,30.16
2023-01-11T06:48:28.724Z,30.48
2023-01-11T06:51:01.495Z,29.99
2023-01-11T06:53:31.678Z,30.14
2023-01-11T06:56:04.650Z,30.40
2023-01-11T06:58:35.639Z,30.18
2023-01-11T07:01:03.528Z,30.39
2023-01-11T07:03:39.496Z,30.40
2023-01-11T07:06:12.454Z,30.33
2023-01-11T07:08:45.567Z,30.25
2023-01-11T07:11:17.474Z,30.26
2023-01-11T07:13:50.774Z,30.61
2023-01-11T07:16:26.900Z,30.46
2023-01-11T07:18:57.342Z,30.17
2023-01-11T07:21:33.715Z,30.54
2023-01-11T07:24:06.585Z,30.43
2023-01-11T07:26:41.550Z,30.11
2023-01-11T07:29:13.610Z,30.05
2023-01-11T07:31:51.234Z,29.72
2023-01-11T07:34:21.752Z,28.71
2023-01-11T07:36:53.718Z,27.72
2023-01-11T07:39:38.498Z,25.95
2023-01-11T07:42:34.629Z,25.73
2023-01-11T07:45:08.299Z,26.02
2023-01-11T07:47:41.020Z,26.42
2023-01-11T07:50:11.519Z,27.43
2023-01-11T07:52:48.221Z,27.78
2023-01-11T07:55:25.446Z,28.54
2023-01-11T07:57:57.547Z,28.05
2023-01-11T08:00:32.677Z,28.55
2023-01-11T08:03:08.014Z,28.79
2023-01-11T08:05:43.209Z,29.08
2023-01-11T08:08:14.717Z,28.94
2023-01-11T08:10:47.684Z,29.09
2023-01-11T08:13:37.092Z,29.48
2023-01-11T08:16:08.163Z,28.74
2023-01-11T08:18:41.781Z,29.40
2023-01-11T08:21:10.597Z,29.31
2023-01-11T08:23:38.368Z,29.02
2023-01-11T08:26:10.912Z,29.45
2023-01-11T08:28:41.607Z,29.38
2023-01-11T08:31:12.543Z,29.17
2023-01-11T08:33:43.076Z,28.56
2023-01-11T08:36:14.833Z,27.96
2023-01-11T08:38:43.601Z,27.31
2023-01-11T08:41:20.094Z,26.25
2023-01-11T08:43:51.635Z,25.28
2023-01-11T08:46:28.809Z,25.02
2023-01-11T08:49:02.558Z,25.17
2023-01-11T08:51:35.893Z,25.90
2023-01-11T08:54:04.610Z,27.71
2023-01-11T08:56:35.627Z,27.06
2023-01-11T08:59:07.994Z,26.67
2023-01-11T09:01:41.553Z,26.86
2023-01-11T09:04:25.475Z,26.00
2023-01-11T09:07:01.409Z,26.05
2023-01-11T09:09:30.411Z,26.70
2023-01-11T09:12:05.580Z,26.65
2023-01-11T09:14:42.773Z,27.32
2023-01-11T09:17:15.992Z,27.42
2023-01-11T09:19:47.676Z,27.41
2023-01-11T09:22:19.342Z,27.31
2023-01-11T09:24:52.677Z,27.34
2023-01-11T09:27:29.186Z,26.66
2023-01-11T09:30:01.612Z,27.26
2023-01-11T09:32:32.533Z,28.37
2023-01-11T09:35:03.363Z,28.36
2023-01-11T09:37:33.766Z,28.40
2023-01-11T09:40:07.440Z,28.71
2023-01-11T09:42:47.356Z,28.65
2023-01-11T09:45:30.586Z,28.28
2023-01-11T09:48:33.410Z,29.15
2023-01-11T09:51:09.097Z,29.60
2023-01-11T09:53:45.839Z,29.15
2023-01-11T09:56:28.221Z,28.43
2023-01-11T09:59:23.213Z,28.68
2023-01-11T10:02:05.637Z,28.23
2023-01-11T10:05:01.415Z,28.22
2023-01-11T10:07:49.926Z,28.86
2023-01-11T10:18:29.108Z,28.30
2023-01-11T10:18:29.799Z,28.10
2023-01-11T10:20:11.858Z,26.94
2023-01-11T10:22:47.827Z,26.79
2023-01-11T10:25:26.588Z,26.51
2023-01-11T10:28:00.617Z,26.34
2023-01-11T10:31:09.892Z,27.09
2023-01-11T10:34:01.573Z,27.65
2023-01-11T10:37:18.386Z,27.42
2023-01-11T10:40:18.034Z,28.17
2023-01-11T10:43:13.021Z,28.75
2023-01-11T10:45:52.724Z,28.64
2023-01-11T10:48:29.769Z,28.81
2023-01-11T10:51:32.421Z,28.43
2023-01-11T10:54:06.769Z,27.92
2023-01-11T10:57:02.393Z,28.18
2023-01-11T10:59:54.042Z,28.13
2023-01-11T11:02:52.424Z,28.74
2023-01-11T11:05:45.783Z,28.51
2023-01-11T11:08:33.496Z,28.07
2023-01-11T11:11:22.814Z,28.39
2023-01-11T11:14:23.237Z,27.97
2023-01-11T11:17:01.699Z,27.63
2023-01-11T11:19:36.175Z,27.37
2023-01-11T11:22:04.518Z,27.45
2023-01-11T11:24:38.674Z,26.67
2023-01-11T11:27:21.752Z,25.55
2023-01-11T11:29:57.770Z,24.69
2023-01-11T11:32:30.791Z,24.80
2023-01-11T11:35:02.473Z,25.74
2023-01-11T11:37:42.647Z,26.60
2023-01-11T11:40:30.738Z,25.86
2023-01-11T11:43:19.825Z,25.81
2023-01-11T11:45:51.732Z,25.54
2023-01-11T11:48:21.958Z,25.32
2023-01-11T11:50:55.441Z,25.76
2023-01-11T11:53:37.821Z,25.23
2023-01-11T11:56:26.818Z,23.25
2023-01-11T11:58:59.457Z,25.04
2023-01-11T12:01:35.763Z,24.89
2023-01-11T12:04:14.389Z,25.77
2023-01-11T12:07:04.810Z,26.66
2023-01-11T12:09:36.707Z,27.25
2023-01-11T12:12:04.882Z,27.81
2023-01-11T12:14:40.709Z,28.63
2023-01-11T12:17:37.755Z,29.26
2023-01-11T12:20:25.486Z,29.87
2023-01-11T12:23:13.865Z,29.96
2023-01-11T12:26:27.324Z,29.74
2023-01-11T12:29:37.054Z,30.24
2023-01-11T12:32:42.518Z,30.13
2023-01-11T12:35:49.196Z,30.38
2023-01-11T12:38:55.054Z,30.78
2023-01-11T12:41:43.982Z,30.57
2023-01-11T12:44:19.443Z,30.18
2023-01-11T12:47:09.959Z,29.67
2023-01-11T12:49:46.498Z,29.96
2023-01-11T12:52:44.481Z,29.49
2023-01-11T12:55:36.432Z,28.66
2023-01-11T12:58:38.256Z,29.21
2023-01-11T13:01:36.865Z,29.04
2023-01-11T13:04:23.856Z,28.92
2023-01-11T13:07:24.703Z,28.50
2023-01-11T13:10:13.213Z,28.88
2023-01-11T13:12:58.583Z,28.75
2023-01-11T13:16:30.534Z,29.16
2023-01-11T13:19:16.902Z,29.01
2023-01-11T13:21:55.317Z,29.27
2023-01-11T13:24:36.271Z,29.13
2023-01-11T13:27:22.500Z,29.47
2023-01-11T13:30:08.062Z,29.16
2023-01-11T13:32:43.352Z,28.95
2023-01-11T13:35:17.691Z,28.74
2023-01-11T13:38:20.589Z,28.87
2023-01-11T13:40:55.037Z,29.09
2023-01-11T13:43:46.063Z,27.90
2023-01-11T13:46:42.131Z,27.96
2023-01-11T13:49:18.413Z,28.03
2023-01-11T13:51:59.211Z,27.77
2023-01-11T13:54:39.628Z,27.21
2023-01-11T13:57:34.431Z,27.67
2023-01-11T14:00:22.138Z,27.48
2023-01-11T14:03:24.765Z,27.01
2023-01-11T14:06:29.552Z,27.63
2023-01-11T14:09:20.609Z,28.16
2023-01-11T14:12:19.037Z,29.07
2023-01-11T14:15:18.624Z,30.24
2023-01-11T14:17:57.365Z,30.75
2023-01-11T14:21:18.674Z,30.81
2023-01-11T14:24:01.254Z,30.68
2023-01-11T14:26:43.964Z,31.15
2023-01-11T14:29:45.327Z,30.63
2023-01-11T14:32:22.351Z,29.83
2023-01-11T14:35:42.659Z,29.96
2023-01-11T14:39:06.804Z,28.82
2023-01-11T14:41:48.385Z,28.09
2023-01-11T14:44:53.594Z,27.49
2023-01-11T14:47:42.564Z,28.03
2023-01-11T14:50:33.385Z,27.85
2023-01-11T14:53:03.908Z,28.58
2023-01-11T14:55:45.261Z,28.21
2023-01-11T14:58:32.827Z,27.65
2023-01-11T15:01:00.742Z,26.59
2023-01-11T15:03:50.932Z,26.37
2023-01-11T15:06:27.213Z,27.26
2023-01-11T15:09:00.960Z,27.95
2023-01-11T15:11:38.272Z,28.19
2023-01-11T15:14:33.861Z,28.21
2023-01-11T15:17:23.312Z,28.56
2023-01-11T15:19:56.246Z,28.55
2023-01-11T15:22:40.190Z,27.33
2023-01-11T15:25:20.242Z,26.96
2023-01-11T15:27:54.685Z,27.50
2023-01-11T15:30:29.017Z,27.32
2023-01-11T15:33:18.910Z,27.44
2023-01-11T15:35:56.016Z,28.83
2023-01-11T15:38:37.220Z,28.17
2023-01-11T15:41:36.686Z,28.22
2023-01-11T15:44:43.809Z,28.74
2023-01-11T15:48:00.149Z,29.18
2023-01-11T15:51:09.681Z,28.73
2023-01-11T15:53:56.586Z,29.03
2023-01-11T15:56:43.071Z,29.00
2023-01-11T15:59:26.120Z,28.21
2023-01-11T16:02:18.273Z,28.45
2023-01-11T16:04:54.608Z,28.44
2023-01-11T16:07:43.456Z,29.04
2023-01-11T16:11:04.119Z,29.47
2023-01-11T16:14:09.904Z,28.78
2023-01-11T16:16:57.423Z,28.66
2023-01-11T16:19:36.021Z,29.04
2023-01-11T16:22:17.723Z,28.68
2023-01-11T16:24:56.643Z,28.68
2023-01-11T16:27:33.042Z,29.34
2023-01-11T16:30:06.715Z,28.99
2023-01-11T16:32:43.570Z,29.49
2023-01-11T16:35:25.879Z,29.73
2023-01-11T16:37:58.752Z,29.39
2023-01-11T16:40:38.059Z,29.46
2023-01-11T16:43:30.053Z,29.40
2023-01-11T16:46:03.590Z,29.40
2023-01-11T16:48:40.122Z,29.22
2023-01-11T16:51:23.353Z,29.63
2023-01-11T16:54:05.587Z,29.77
2023-01-11T16:56:44.349Z,29.39
2023-01-11T16:59:24.693Z,28.75
2023-01-11T17:02:03.722Z,28.41
2023-01-11T17:04:48.527Z,29.38
2023-01-11T17:07:34.849Z,29.99
2023-01-11T17:10:44.740Z,30.45
2023-01-11T17:13:50.935Z,30.43
2023-01-11T17:16:33.069Z,30.91
2023-01-11T17:19:16.353Z,30.83
2023-01-11T17:22:04.002Z,31.55
2023-01-11T17:24:47.549Z,31.10
2023-01-11T17:27:28.319Z,30.99
2023-01-11T17:29:59.274Z,31.27
2023-01-11T17:32:49.555Z,31.84
2023-01-11T17:35:22.372Z,31.36
2023-01-11T17:37:55.797Z,31.50
2023-01-11T17:40:24.542Z,31.59
2023-01-11T17:43:14.382Z,31.68
2023-01-11T17:46:02.159Z,31.87
2023-01-11T17:48:35.790Z,32.09
2023-01-11T17:51:05.432Z,32.09
2023-01-11T17:53:40.211Z,31.82
2023-01-11T17:56:30.200Z,32.00
2023-01-11T17:59:23.694Z,31.88
2023-01-11T18:01:59.824Z,31.95
2023-01-11T18:04:28.121Z,31.69
2023-01-11T18:07:04.646Z,32.00
2023-01-11T18:09:36.392Z,32.22
2023-01-11T18:12:17.613Z,32.24
2023-01-11T18:15:18.257Z,32.01
2023-01-11T18:17:45.754Z,32.13
2023-01-11T18:20:15.693Z,31.93
2023-01-11T18:23:03.906Z,31.81
2023-01-11T18:25:37.012Z,32.22
2023-01-11T18:28:25.940Z,32.26
2023-01-11T18:30:57.920Z,31.98
2023-01-11T18:33:33.339Z,32.09
2023-01-11T18:36:19.686Z,32.01
2023-01-11T18:38:50.557Z,32.19
2023-01-11T18:41:36.973Z,32.01
2023-01-11T18:44:06.149Z,32.26
2023-01-11T18:46:33.527Z,32.49
2023-01-11T18:49:01.112Z,32.20
2023-01-11T18:51:33.680Z,32.18
2023-01-11T18:54:04.116Z,32.30
2023-01-11T18:56:39.238Z,32.15
2023-01-11T18:59:08.286Z,32.20
2023-01-11T19:01:52.614Z,32.25
2023-01-11T19:04:29.581Z,32.25
2023-01-11T19:06:57.209Z,32.22
2023-01-11T19:09:26.866Z,32.40
2023-01-11T19:11:57.556Z,32.25
2023-01-11T19:14:25.442Z,32.28
2023-01-11T19:16:59.141Z,32.24
2023-01-11T19:19:26.890Z,31.89
2023-01-11T19:21:54.547Z,31.74
2023-01-11T19:24:22.118Z,32.28
2023-01-11T19:26:50.013Z,31.77
2023-01-11T19:29:19.044Z,31.96
2023-01-11T19:31:47.563Z,31.88
2023-01-11T19:34:20.699Z,31.87
2023-01-11T19:36:54.317Z,31.69
2023-01-11T19:39:27.556Z,31.69
2023-01-11T19:42:00.888Z,31.71
2023-01-11T19:44:36.993Z,31.77
2023-01-11T19:47:13.462Z,31.56
2023-01-11T19:49:47.331Z,31.72
2023-01-11T19:52:20.969Z,31.81
2023-01-11T19:54:59.935Z,31.83
2023-01-11T19:57:30.392Z,32.01
2023-01-11T20:00:06.326Z,31.76
2023-01-11T20:02:42.568Z,31.55
2023-01-11T20:05:13.642Z,31.98
2023-01-11T20:07:46.429Z,32.04
2023-01-11T20:10:17.172Z,31.94
2023-01-11T20:12:44.777Z,31.73
2023-01-11T20:15:13.516Z,31.79
2023-01-11T20:17:41.028Z,32.02
2023-01-11T20:20:09.697Z,31.98
2023-01-11T20:22:39.452Z,32.20
2023-01-11T20:25:07.478Z,32.30
2023-01-11T20:27:40.644Z,32.30
2023-01-11T20:30:11.436Z,32.35
2023-01-11T20:32:42.573Z,32.15
2023-01-11T20:35:10.784Z,32.22
2023-01-11T20:37:42.274Z,32.23
2023-01-11T20:40:13.588Z,32.02
2023-01-11T20:42:42.188Z,32.16
2023-01-11T20:45:18.452Z,31.63
2023-01-11T20:47:49.672Z,31.81
2023-01-11T20:50:19.834Z,31.81
2023-01-11T20:52:54.374Z,31.75
2023-01-11T20:55:23.307Z,31.79
2023-01-11T20:57:53.424Z,31.65
2023-01-11T21:00:25.899Z,31.86
2023-01-11T21:02:53.648Z,31.65
2023-01-11T21:05:21.363Z,31.83
2023-01-11T21:07:49.085Z,31.84
2023-01-11T21:10:18.011Z,31.84
2023-01-11T21:15:16.019Z,31.85
2023-01-11T21:17:43.411Z,31.94
2023-01-11T21:20:11.368Z,31.98
2023-01-11T21:22:42.723Z,32.01
2023-01-11T21:25:10.316Z,32.02
2023-01-11T21:27:40.487Z,31.96
2023-01-11T21:30:11.275Z,31.76
2023-01-11T21:32:41.869Z,32.07
2023-01-11T21:35:12.820Z,31.86
2023-01-11T21:37:40.960Z,31.91
2023-01-11T21:40:11.794Z,31.74
2023-01-11T21:42:45.367Z,31.60
2023-01-11T21:45:20.649Z,31.72
2023-01-11T21:47:48.677Z,31.74
2023-01-11T21:50:19.810Z,31.78
2023-01-11T21:52:50.200Z,31.58
2023-01-11T21:55:20.814Z,31.67
2023-01-11T21:57:49.113Z,31.78
2023-01-11T22:00:19.617Z,31.72
2023-01-11T22:02:52.688Z,31.73
2023-01-11T22:05:20.448Z,31.67
2023-01-11T22:07:53.856Z,31.43
2023-01-11T22:10:24.769Z,31.39
2023-01-11T22:12:53.307Z,31.27
2023-01-11T22:15:20.739Z,30.96
2023-01-11T22:17:47.945Z,30.88
2023-01-11T22:20:18.491Z,30.72
2023-01-11T22:22:46.216Z,30.37
2023-01-11T22:25:17.627Z,30.21
2023-01-11T22:27:45.669Z,30.51
2023-01-11T22:30:19.872Z,30.66
2023-01-11T22:32:50.313Z,29.75
2023-01-11T22:35:17.967Z,30.03
2023-01-11T22:37:49.858Z,29.66
2023-01-11T22:40:28.027Z,29.70
2023-01-11T22:42:55.631Z,29.61
2023-01-11T22:45:29.823Z,29.68
2023-01-11T22:48:01.732Z,29.69
2023-01-11T22:50:29.480Z,29.94
2023-01-11T22:53:03.265Z,29.92
2023-01-11T22:55:34.054Z,30.13
2023-01-11T22:58:01.633Z,30.38
2023-01-11T23:00:31.860Z,30.55
2023-01-11T23:03:05.078Z,30.57
2023-01-11T23:05:32.701Z,30.75
2023-01-11T23:08:00.607Z,30.95
2023-01-11T23:10:31.596Z,31.05
2023-01-11T23:13:21.661Z,31.04
2023-01-11T23:15:54.374Z,31.09
2023-01-11T23:18:22.655Z,31.06
2023-01-11T23:20:50.657Z,31.30
2023-01-11T23:23:18.451Z,30.94
2023-01-11T23:25:49.611Z,31.03
2023-01-11T23:28:17.205Z,31.12
2023-01-11T23:30:50.852Z,31.13
2023-01-11T23:33:18.691Z,31.22
2023-01-11T23:35:58.224Z,31.01
2023-01-11T23:38:32.665Z,31.29
2023-01-11T23:41:32.985Z,31.44
2023-01-11T23:44:01.866Z,31.14
2023-01-11T23:46:48.285Z,31.45
2023-01-11T23:49:15.875Z,31.12
2023-01-11T23:51:45.825Z,31.37
2023-01-11T23:54:17.108Z,31.14
2023-01-11T23:56:44.693Z,31.39
2023-01-11T23:59:15.827Z,31.83
